createdAt,value
2023-02-13T00:00:50.064Z,9.70
2023-02-13T00:03:23.427Z,9.60
2023-02-13T00:05:56.846Z,9.50
2023-02-13T00:08:27.618Z,9.50
2023-02-13T00:10:59.068Z,9.40
2023-02-13T00:13:30.382Z,9.50
2023-02-13T00:16:02.533Z,9.50
2023-02-13T00:18:38.022Z,9.90
2023-02-13T00:21:13.042Z,9.60
2023-02-13T00:23:44.047Z,9.60
2023-02-13T00:26:17.082Z,9.60
2023-02-13T00:28:48.546Z,9.60
2023-02-13T00:31:21.303Z,9.60
2023-02-13T00:33:52.451Z,9.60
2023-02-13T00:36:27.492Z,9.50
2023-02-13T00:38:58.418Z,9.50
2023-02-13T00:41:29.273Z,9.40
2023-02-13T00:44:00.415Z,9.40
2023-02-13T00:46:31.225Z,9.40
2023-02-13T00:49:02.137Z,9.50
2023-02-13T00:51:35.822Z,9.50
2023-02-13T00:54:07.040Z,9.50
2023-02-13T00:56:37.834Z,9.50
2023-02-13T00:59:08.935Z,9.50
2023-02-13T01:01:39.820Z,9.50
2023-02-13T01:04:10.792Z,9.50
2023-02-13T01:06:44.371Z,9.50
2023-02-13T01:09:16.481Z,9.50
2023-02-13T01:11:47.699Z,9.50
2023-02-13T01:14:18.519Z,9.50
2023-02-13T01:16:49.512Z,9.40
2023-02-13T01:19:20.358Z,9.40
2023-02-13T01:21:53.906Z,9.40
2023-02-13T01:24:24.765Z,9.40
2023-02-13T01:26:55.741Z,9.40
2023-02-13T01:29:26.517Z,9.40
2023-02-13T01:31:57.437Z,9.40
2023-02-13T01:34:31.279Z,9.40
2023-02-13T01:37:07.840Z,9.40
2023-02-13T01:39:41.618Z,9.30
2023-02-13T01:42:18.021Z,9.30
2023-02-13T01:44:55.532Z,9.30
2023-02-13T01:47:29.850Z,9.40
2023-02-13T01:50:11.797Z,9.40
2023-02-13T01:52:50.489Z,9.50
2023-02-13T01:55:22.538Z,9.50
2023-02-13T01:58:00.584Z,9.40
2023-02-13T02:00:31.996Z,9.40
2023-02-13T02:03:06.991Z,9.40
2023-02-13T02:05:38.688Z,9.40
2023-02-13T02:08:14.625Z,9.30
2023-02-13T02:10:45.888Z,9.30
2023-02-13T02:13:21.861Z,9.30
2023-02-13T02:15:53.516Z,9.30
2023-02-13T02:18:25.629Z,9.30
2023-02-13T02:21:32.509Z,9.30
2023-02-13T02:24:36.010Z,9.20
2023-02-13T02:27:35.102Z,9.30
2023-02-13T02:30:41.469Z,9.20
2023-02-13T02:33:24.462Z,9.20
2023-02-13T02:36:04.881Z,9.20
2023-02-13T02:38:50.853Z,9.30
2023-02-13T02:41:45.105Z,9.20
2023-02-13T02:44:27.463Z,9.20
2023-02-13T02:47:29.074Z,9.10
2023-02-13T02:50:16.278Z,9.10
2023-02-13T02:52:59.995Z,9.20
2023-02-13T02:55:39.883Z,9.10
2023-02-13T02:58:29.287Z,9.10
2023-02-13T03:01:15.350Z,9.00
2023-02-13T03:03:59.318Z,9.00
2023-02-13T03:06:41.402Z,9.00
2023-02-13T03:09:27.923Z,9.00
2023-02-13T03:12:12.620Z,9.10
2023-02-13T03:14:44.499Z,9.10
2023-02-13T03:17:30.890Z,9.00
2023-02-13T03:20:31.161Z,9.00
2023-02-13T03:23:14.800Z,8.90
2023-02-13T03:26:02.445Z,8.80
2023-02-13T03:28:52.057Z,8.90
2023-02-13T03:31:29.128Z,8.90
2023-02-13T03:34:04.864Z,8.90
2023-02-13T03:37:02.274Z,9.10
2023-02-13T03:39:47.309Z,8.70
2023-02-13T03:42:25.781Z,8.70
2023-02-13T03:45:19.063Z,8.70
2023-02-13T03:47:52.332Z,8.70
2023-02-13T03:50:20.762Z,8.70
2023-02-13T03:52:55.743Z,8.70
2023-02-13T03:55:45.684Z,9.00
2023-02-13T03:58:33.119Z,8.80
2023-02-13T04:01:08.076Z,8.80
2023-02-13T04:03:45.500Z,8.70
2023-02-13T04:06:18.433Z,8.70
2023-02-13T04:08:49.403Z,8.70
2023-02-13T04:11:29.705Z,8.60
2023-02-13T04:14:03.403Z,8.60
2023-02-13T04:16:38.362Z,8.70
2023-02-13T04:19:12.059Z,8.70
2023-02-13T04:21:43.913Z,8.70
2023-02-13T04:24:15.179Z,8.90
2023-02-13T04:26:49.542Z,8.60
2023-02-13T04:29:20.344Z,8.70
2023-02-13T04:31:51.483Z,8.70
2023-02-13T04:34:22.383Z,8.60
2023-02-13T04:36:53.276Z,8.50
2023-02-13T04:39:24.038Z,8.60
2023-02-13T04:42:00.325Z,8.50
2023-02-13T04:44:31.134Z,8.60
2023-02-13T04:47:01.892Z,8.70
2023-02-13T04:49:32.875Z,8.70
2023-02-13T04:52:03.802Z,8.70
2023-02-13T04:54:34.686Z,8.70
2023-02-13T04:57:10.191Z,8.60
2023-02-13T04:59:44.178Z,8.60
2023-02-13T05:02:15.265Z,8.50
2023-02-13T05:04:46.164Z,8.60
2023-02-13T05:07:19.414Z,8.60
2023-02-13T05:09:50.602Z,8.60
2023-02-13T05:12:24.171Z,8.70
2023-02-13T05:14:54.988Z,8.70
2023-02-13T05:17:28.225Z,8.80
2023-02-13T05:19:59.193Z,8.80
2023-02-13T05:22:42.697Z,8.70
2023-02-13T05:25:13.770Z,8.70
2023-02-13T05:27:47.522Z,8.60
2023-02-13T05:30:22.274Z,8.70
2023-02-13T05:32:56.728Z,8.70
2023-02-13T05:35:28.011Z,8.70
2023-02-13T05:37:58.817Z,8.70
2023-02-13T05:40:29.656Z,8.60
2023-02-13T05:43:03.066Z,8.60
2023-02-13T05:45:34.131Z,8.70
2023-02-13T05:48:04.886Z,8.70
2023-02-13T05:50:35.650Z,8.70
2023-02-13T05:53:06.447Z,8.70
2023-02-13T05:55:41.375Z,8.70
2023-02-13T05:58:14.980Z,8.70
2023-02-13T06:00:45.920Z,8.60
2023-02-13T06:03:17.459Z,8.70
2023-02-13T06:05:48.192Z,8.60
2023-02-13T06:08:19.012Z,8.60
2023-02-13T06:10:49.998Z,8.50
2023-02-13T06:13:23.362Z,8.40
2023-02-13T06:15:54.261Z,8.50
2023-02-13T06:18:25.466Z,8.50
2023-02-13T06:20:56.606Z,8.50
2023-02-13T06:23:27.668Z,8.50
2023-02-13T06:25:58.730Z,8.50
2023-02-13T06:28:32.115Z,8.40
2023-02-13T06:31:03.116Z,8.30
2023-02-13T06:33:34.524Z,8.20
2023-02-13T06:36:05.363Z,8.10
2023-02-13T06:38:36.140Z,7.90
2023-02-13T06:41:07.500Z,7.80
2023-02-13T06:43:43.832Z,7.60
2023-02-13T06:46:14.599Z,7.30
2023-02-13T06:48:48.253Z,7.50
2023-02-13T06:51:20.702Z,7.40
2023-02-13T06:53:51.744Z,7.30
2023-02-13T06:56:22.511Z,7.30
2023-02-13T06:58:55.831Z,7.20
2023-02-13T07:01:30.520Z,7.10
2023-02-13T07:04:01.408Z,7.00
2023-02-13T07:06:33.593Z,6.90
2023-02-13T07:09:04.722Z,6.90
2023-02-13T07:11:35.545Z,6.90
2023-02-13T07:14:09.773Z,6.80
2023-02-13T07:16:40.579Z,6.80
2023-02-13T07:19:11.681Z,6.70
2023-02-13T07:21:42.587Z,6.60
2023-02-13T07:24:13.572Z,6.60
2023-02-13T07:26:44.271Z,6.60
2023-02-13T07:29:20.266Z,6.50
2023-02-13T07:31:51.314Z,6.50
2023-02-13T07:34:22.073Z,6.50
2023-02-13T07:36:52.840Z,6.50
2023-02-13T07:39:25.915Z,6.50
2023-02-13T07:41:56.679Z,6.40
2023-02-13T07:44:33.169Z,6.40
2023-02-13T07:47:04.351Z,6.20
2023-02-13T07:49:37.130Z,6.40
2023-02-13T07:52:09.006Z,6.40
2023-02-13T07:54:48.070Z,6.40
2023-02-13T07:57:19.708Z,6.40
2023-02-13T07:59:55.706Z,6.40
2023-02-13T08:02:26.645Z,6.80
2023-02-13T08:05:00.518Z,6.60
2023-02-13T08:07:31.622Z,6.80
2023-02-13T08:10:14.861Z,6.90
2023-02-13T08:12:46.059Z,7.00
2023-02-13T08:15:19.735Z,7.10
2023-02-13T08:17:50.668Z,7.50
2023-02-13T08:20:21.946Z,7.30
2023-02-13T08:22:53.003Z,7.40
2023-02-13T08:25:23.848Z,7.50
2023-02-13T08:27:54.564Z,7.60
2023-02-13T08:30:28.857Z,7.70
2023-02-13T08:32:59.768Z,7.70
2023-02-13T08:35:31.735Z,7.90
2023-02-13T08:38:05.593Z,8.00
2023-02-13T08:40:36.817Z,8.10
2023-02-13T08:43:08.988Z,8.10
2023-02-13T08:45:42.461Z,8.20
2023-02-13T08:48:13.345Z,8.30
2023-02-13T08:50:44.472Z,8.50
2023-02-13T08:53:15.329Z,8.50
2023-02-13T08:55:46.171Z,8.70
2023-02-13T08:58:17.013Z,8.80
2023-02-13T09:00:51.010Z,8.80
2023-02-13T09:03:21.903Z,8.90
2023-02-13T09:05:53.154Z,8.90
2023-02-13T09:08:24.515Z,9.10
2023-02-13T09:10:59.747Z,9.00
2023-02-13T09:13:33.061Z,9.10
2023-02-13T09:16:09.555Z,9.10
2023-02-13T09:18:40.426Z,8.90
2023-02-13T09:21:16.365Z,9.30
2023-02-13T09:23:47.350Z,9.40
2023-02-13T09:26:20.675Z,9.40
2023-02-13T09:28:51.820Z,9.40
2023-02-13T09:31:29.759Z,9.50
2023-02-13T09:34:00.676Z,9.50
2023-02-13T09:36:31.733Z,9.60
2023-02-13T09:39:02.961Z,9.60
2023-02-13T09:41:39.860Z,9.60
2023-02-13T09:44:34.019Z,9.50
2023-02-13T09:47:17.399Z,9.60
2023-02-13T09:49:53.456Z,9.60
2023-02-13T09:52:24.401Z,9.70
2023-02-13T09:54:55.272Z,9.70
2023-02-13T09:57:33.267Z,9.80
2023-02-13T10:00:13.412Z,9.80
2023-02-13T10:03:17.381Z,9.90
2023-02-13T10:05:58.097Z,9.90
2023-02-13T10:08:42.737Z,10.00
2023-02-13T10:11:35.598Z,10.00
2023-02-13T10:14:14.524Z,10.10
2023-02-13T10:16:50.894Z,10.10
2023-02-13T10:19:38.327Z,10.20
2023-02-13T10:22:14.980Z,10.40
2023-02-13T10:24:51.054Z,10.30
2023-02-13T10:27:26.133Z,10.30
2023-02-13T10:30:09.537Z,10.20
2023-02-13T10:33:14.609Z,10.30
2023-02-13T10:35:51.100Z,10.30
2023-02-13T10:38:23.773Z,10.10
2023-02-13T10:41:16.862Z,10.80
2023-02-13T10:44:00.936Z,10.50
2023-02-13T10:46:40.259Z,10.50
2023-02-13T10:49:26.801Z,10.50
2023-02-13T10:52:13.566Z,10.60
2023-02-13T10:55:03.048Z,10.70
2023-02-13T10:58:02.028Z,10.70
2023-02-13T11:00:37.824Z,10.80
2023-02-13T11:03:19.479Z,10.90
2023-02-13T11:05:50.505Z,10.90
2023-02-13T11:08:26.882Z,10.90
2023-02-13T11:10:57.857Z,10.90
2023-02-13T11:13:31.163Z,11.10
2023-02-13T11:16:05.563Z,11.20
2023-02-13T11:18:41.049Z,11.30
2023-02-13T11:21:13.934Z,11.30
2023-02-13T11:23:52.366Z,11.30
2023-02-13T11:26:29.434Z,11.40
2023-02-13T11:29:03.407Z,11.60
2023-02-13T11:31:36.461Z,11.60
2023-02-13T11:34:27.275Z,11.60
2023-02-13T11:37:17.041Z,11.60
2023-02-13T11:39:53.208Z,11.70
2023-02-13T11:42:30.424Z,11.30
2023-02-13T11:45:04.431Z,11.80
2023-02-13T11:47:45.942Z,11.90
2023-02-13T11:50:27.686Z,12.00
2023-02-13T11:53:04.397Z,12.10
2023-02-13T11:55:42.648Z,12.10
2023-02-13T11:58:27.794Z,12.20
2023-02-13T12:01:13.667Z,12.40
2023-02-13T12:03:47.111Z,12.50
2023-02-13T12:06:20.917Z,12.60
2023-02-13T12:08:53.374Z,12.50
2023-02-13T12:11:33.685Z,12.50
2023-02-13T12:14:04.917Z,12.60
2023-02-13T12:16:41.693Z,12.60
2023-02-13T12:19:19.768Z,12.80
2023-02-13T12:22:02.546Z,12.80
2023-02-13T12:25:04.929Z,12.90
2023-02-13T12:27:53.362Z,13.00
2023-02-13T12:30:55.207Z,13.00
2023-02-13T12:33:43.340Z,13.00
2023-02-13T12:36:21.658Z,13.10
2023-02-13T12:39:11.387Z,13.20
2023-02-13T12:41:49.296Z,13.10
2023-02-13T12:44:46.524Z,13.10
2023-02-13T12:47:21.981Z,13.20
2023-02-13T12:50:23.543Z,13.40
2023-02-13T12:53:17.379Z,13.40
2023-02-13T12:56:11.721Z,13.40
2023-02-13T12:58:59.896Z,13.50
2023-02-13T13:02:00.340Z,13.40
2023-02-13T13:04:45.716Z,13.50
2023-02-13T13:07:41.146Z,13.50
2023-02-13T13:10:34.521Z,13.60
2023-02-13T13:13:19.326Z,13.70
2023-02-13T13:15:58.390Z,13.70
2023-02-13T13:18:42.807Z,13.70
2023-02-13T13:21:25.277Z,13.70
2023-02-13T13:24:05.377Z,13.70
2023-02-13T13:26:39.736Z,13.70
2023-02-13T13:29:16.975Z,13.70
2023-02-13T13:31:53.932Z,13.60
2023-02-13T13:34:29.962Z,13.60
2023-02-13T13:37:07.812Z,13.50
2023-02-13T13:39:49.557Z,13.40
2023-02-13T13:42:27.780Z,13.50
2023-02-13T13:45:34.199Z,13.70
2023-02-13T13:48:36.854Z,13.90
2023-02-13T13:51:13.139Z,14.00
2023-02-13T13:54:28.285Z,14.00
2023-02-13T13:57:14.295Z,14.00
2023-02-13T14:00:29.978Z,14.00
2023-02-13T14:03:27.148Z,13.90
2023-02-13T14:06:04.719Z,13.90
2023-02-13T14:09:10.470Z,14.10
2023-02-13T14:11:48.270Z,14.10
2023-02-13T14:14:46.990Z,14.00
2023-02-13T14:17:20.103Z,13.90
2023-02-13T14:19:58.162Z,13.90
2023-02-13T14:22:35.645Z,14.10
2023-02-13T14:25:09.598Z,14.00
2023-02-13T14:27:44.030Z,14.10
2023-02-13T14:30:30.809Z,14.00
2023-02-13T14:33:06.119Z,13.90
2023-02-13T14:35:43.357Z,14.00
2023-02-13T14:38:26.996Z,14.00
2023-02-13T14:40:58.033Z,14.00
2023-02-13T14:43:40.852Z,13.90
2023-02-13T14:46:30.526Z,14.00
2023-02-13T14:49:08.509Z,13.90
2023-02-13T14:51:43.100Z,13.90
2023-02-13T14:54:22.632Z,13.90
2023-02-13T14:56:56.709Z,13.80
2023-02-13T14:59:35.549Z,13.80
2023-02-13T15:02:26.015Z,13.70
2023-02-13T15:04:59.731Z,13.60
2023-02-13T15:07:33.623Z,13.40
2023-02-13T15:10:10.830Z,13.70
2023-02-13T15:12:41.733Z,13.80
2023-02-13T15:15:27.367Z,13.70
2023-02-13T15:18:02.350Z,13.70
2023-02-13T15:20:36.483Z,13.70
2023-02-13T15:23:09.776Z,13.60
2023-02-13T15:25:42.509Z,13.60
2023-02-13T15:28:23.750Z,13.40
2023-02-13T15:31:02.866Z,13.40
2023-02-13T15:33:38.495Z,13.30
2023-02-13T15:36:19.703Z,13.30
2023-02-13T15:38:50.782Z,13.30
2023-02-13T15:41:26.201Z,13.20
2023-02-13T15:44:00.448Z,13.20
2023-02-13T15:46:36.116Z,12.90
2023-02-13T15:49:11.056Z,12.90
2023-02-13T15:51:42.011Z,12.90
2023-02-13T15:54:27.566Z,13.20
2023-02-13T15:57:01.988Z,12.80
2023-02-13T15:59:40.200Z,12.60
2023-02-13T16:02:21.461Z,12.50
2023-02-13T16:04:56.159Z,12.40
2023-02-13T16:07:26.953Z,12.40
2023-02-13T16:10:18.900Z,12.30
2023-02-13T16:12:51.850Z,12.30
2023-02-13T16:15:25.641Z,12.20
2023-02-13T16:18:01.699Z,12.00
2023-02-13T16:20:36.730Z,12.00
2023-02-13T16:23:16.258Z,11.90
2023-02-13T16:25:51.942Z,11.80
2023-02-13T16:28:26.217Z,11.70
2023-02-13T16:31:03.684Z,11.60
2023-02-13T16:33:43.447Z,11.50
2023-02-13T16:36:28.657Z,11.40
2023-02-13T16:38:59.588Z,11.30
2023-02-13T16:41:40.491Z,11.20
2023-02-13T16:48:04.044Z,11.00
2023-02-13T16:50:37.465Z,10.90
2023-02-13T16:53:08.398Z,10.90
2023-02-13T16:55:39.299Z,10.90
2023-02-13T16:58:21.015Z,10.70
2023-02-13T17:00:53.547Z,10.70
2023-02-13T17:03:24.420Z,10.60
2023-02-13T17:05:57.911Z,10.60
2023-02-13T17:08:28.700Z,10.60
2023-02-13T17:11:09.488Z,10.40
2023-02-13T17:13:42.045Z,10.30
2023-02-13T17:16:13.404Z,10.20
2023-02-13T17:18:44.390Z,10.10
2023-02-13T17:21:21.299Z,10.00
2023-02-13T17:23:52.381Z,9.90
2023-02-13T17:26:23.394Z,9.80
2023-02-13T17:28:54.152Z,9.70
2023-02-13T17:31:25.542Z,9.70
2023-02-13T17:33:56.770Z,9.60
2023-02-13T17:36:33.250Z,9.50
2023-02-13T17:39:04.066Z,9.40
2023-02-13T17:41:34.838Z,9.30
2023-02-13T17:44:10.309Z,9.20
2023-02-13T17:46:41.158Z,9.10
2023-02-13T17:49:12.369Z,9.10
2023-02-13T17:52:00.680Z,9.00
2023-02-13T17:54:33.126Z,8.90
2023-02-13T17:57:04.061Z,8.90
2023-02-13T17:59:34.941Z,8.80
2023-02-13T18:02:05.935Z,8.80
2023-02-13T18:04:36.709Z,8.70
2023-02-13T18:07:10.406Z,8.60
2023-02-13T18:09:41.967Z,8.60
2023-02-13T18:12:21.606Z,8.50
2023-02-13T18:14:53.281Z,8.50
2023-02-13T18:17:24.332Z,8.40
2023-02-13T18:19:55.873Z,8.30
2023-02-13T18:22:29.548Z,8.30
2023-02-13T18:25:00.359Z,8.20
2023-02-13T18:27:31.423Z,8.10
2023-02-13T18:30:02.541Z,8.10
2023-02-13T18:32:33.496Z,8.00
2023-02-13T18:35:07.725Z,8.00
2023-02-13T18:37:41.229Z,7.90
2023-02-13T18:40:15.063Z,7.90
2023-02-13T18:42:46.327Z,7.80
2023-02-13T18:45:17.171Z,7.70
2023-02-13T18:47:48.165Z,7.60
2023-02-13T18:50:18.995Z,7.70
2023-02-13T18:52:52.392Z,7.60
2023-02-13T18:55:23.137Z,7.60
2023-02-13T18:57:56.407Z,7.50
2023-02-13T19:00:27.470Z,7.50
2023-02-13T19:02:58.417Z,7.40
2023-02-13T19:05:29.156Z,7.40
2023-02-13T19:08:02.561Z,7.30
2023-02-13T19:10:33.534Z,7.30
2023-02-13T19:13:05.633Z,7.20
2023-02-13T19:15:38.636Z,7.20
2023-02-13T19:18:09.605Z,7.20
2023-02-13T19:20:41.367Z,7.10
2023-02-13T19:23:15.029Z,7.00
2023-02-13T19:25:45.805Z,7.00
2023-02-13T19:28:16.601Z,6.90
2023-02-13T19:30:47.681Z,6.90
2023-02-13T19:33:18.535Z,6.90
2023-02-13T19:35:59.883Z,6.90
2023-02-13T19:38:36.687Z,6.90
2023-02-13T19:41:08.711Z,6.90
2023-02-13T19:43:39.480Z,6.90
2023-02-13T19:46:17.473Z,6.80
2023-02-13T19:48:48.944Z,6.80
2023-02-13T19:51:22.104Z,6.80
2023-02-13T19:53:59.038Z,6.70
2023-02-13T19:56:32.137Z,6.70
2023-02-13T19:59:02.915Z,6.80
2023-02-13T20:01:34.160Z,6.60
2023-02-13T20:04:05.604Z,6.60
2023-02-13T20:06:39.062Z,6.50
2023-02-13T20:09:14.270Z,6.40
2023-02-13T20:11:46.214Z,6.40
2023-02-13T20:14:17.562Z,6.30
2023-02-13T20:16:48.562Z,6.20
2023-02-13T20:19:22.580Z,6.30
2023-02-13T20:21:54.184Z,6.20
2023-02-13T20:24:27.614Z,6.10
2023-02-13T20:26:58.932Z,6.10
2023-02-13T20:29:29.727Z,6.00
2023-02-13T20:32:00.566Z,6.00
2023-02-13T20:34:44.147Z,6.00
2023-02-13T20:37:25.630Z,5.90
2023-02-13T20:40:02.043Z,5.90
2023-02-13T20:42:35.475Z,5.80
2023-02-13T20:45:09.345Z,5.80
2023-02-13T20:47:41.821Z,5.70
2023-02-13T20:50:13.307Z,5.70
2023-02-13T20:52:44.027Z,5.60
2023-02-13T20:55:17.368Z,5.60
2023-02-13T20:57:48.544Z,5.90
2023-02-13T21:00:19.815Z,5.50
2023-02-13T21:02:52.598Z,5.40
2023-02-13T21:05:23.317Z,5.40
2023-02-13T21:07:55.630Z,5.30
2023-02-13T21:10:29.019Z,5.30
2023-02-13T21:12:59.740Z,5.30
2023-02-13T21:15:31.789Z,5.20
2023-02-13T21:18:03.618Z,5.20
2023-02-13T21:20:35.004Z,5.10
2023-02-13T21:23:11.292Z,5.10
2023-02-13T21:25:46.127Z,5.10
2023-02-13T21:28:16.938Z,5.10
2023-02-13T21:30:47.818Z,5.00
2023-02-13T21:33:18.666Z,5.00
2023-02-13T21:35:49.583Z,5.00
2023-02-13T21:38:22.394Z,4.90
2023-02-13T21:40:57.951Z,4.90
2023-02-13T21:43:29.001Z,4.90
2023-02-13T21:46:08.691Z,4.90
2023-02-13T21:48:40.121Z,4.90
2023-02-13T21:51:12.355Z,4.80
2023-02-13T21:53:43.407Z,5.20
2023-02-13T21:56:18.635Z,4.70
2023-02-13T21:58:49.941Z,4.70
2023-02-13T22:01:27.325Z,4.70
2023-02-13T22:04:02.256Z,4.70
2023-02-13T22:06:34.425Z,4.60
2023-02-13T22:09:07.697Z,4.60
2023-02-13T22:11:41.576Z,4.60
2023-02-13T22:14:17.104Z,4.50
2023-02-13T22:16:48.660Z,4.50
2023-02-13T22:19:20.337Z,4.40
2023-02-13T22:21:53.780Z,4.40
2023-02-13T22:24:24.776Z,4.40
2023-02-13T22:26:58.490Z,4.30
2023-02-13T22:29:29.262Z,4.40
2023-02-13T22:32:00.150Z,4.40
2023-02-13T22:34:31.335Z,4.40
2023-02-13T22:37:02.302Z,4.40
2023-02-13T22:39:33.105Z,4.30
2023-02-13T22:42:09.548Z,4.30
2023-02-13T22:44:40.283Z,4.30
2023-02-13T22:47:11.183Z,4.40
2023-02-13T22:49:44.525Z,4.40
2023-02-13T22:52:15.304Z,4.40
2023-02-13T22:54:46.084Z,4.50
2023-02-13T22:57:20.141Z,4.50
2023-02-13T22:59:51.151Z,4.50
2023-02-13T23:02:21.940Z,4.50
2023-02-13T23:04:52.727Z,4.50
2023-02-13T23:07:26.218Z,4.50
2023-02-13T23:09:57.439Z,4.50
2023-02-13T23:12:37.154Z,4.40
2023-02-13T23:15:09.986Z,4.50
2023-02-13T23:17:53.709Z,4.80
2023-02-13T23:20:24.880Z,4.50
2023-02-13T23:22:56.063Z,4.50
2023-02-13T23:25:26.959Z,4.50
2023-02-13T23:28:00.606Z,4.50
2023-02-13T23:30:34.222Z,4.50
2023-02-13T23:33:07.687Z,4.50
2023-02-13T23:35:40.933Z,4.50
2023-02-13T23:38:11.702Z,4.50
2023-02-13T23:40:42.440Z,4.50
2023-02-13T23:43:16.035Z,4.50
2023-02-13T23:45:46.783Z,4.40
2023-02-13T23:48:17.520Z,4.40
2023-02-13T23:50:53.623Z,4.40
2023-02-13T23:53:24.747Z,4.30
2023-02-13T23:55:55.510Z,4.30
2023-02-13T23:58:28.881Z,4.30
